sensor_id;sensor_type;location;lat;lon;timestamp;pressure;altitude;pressure_sealevel;temperature
35960;BMP280;22043;50.970;7.192;2023-04-25T00:00:59;98597.59;;;7.57
35960;BMP280;22043;50.970;7.192;2023-04-25T00:03:24;98599.16;;;7.58
35960;BMP280;22043;50.970;7.192;2023-04-25T00:05:50;98607.69;;;7.56
35960;BMP280;22043;50.970;7.192;2023-04-25T00:08:17;98606.94;;;7.52
35960;BMP280;22043;50.970;7.192;2023-04-25T00:10:42;98593.09;;;7.43
35960;BMP280;22043;50.970;7.192;2023-04-25T00:13:08;98598.03;;;7.48
35960;BMP280;22043;50.970;7.192;2023-04-25T00:15:34;98595.81;;;7.40
35960;BMP280;22043;50.970;7.192;2023-04-25T00:18:01;98597.78;;;7.36
35960;BMP280;22043;50.970;7.192;2023-04-25T00:20:26;98595.81;;;7.36
35960;BMP280;22043;50.970;7.192;2023-04-25T00:22:52;98589.72;;;7.28
35960;BMP280;22043;50.970;7.192;2023-04-25T00:25:18;98605.56;;;7.34
35960;BMP280;22043;50.970;7.192;2023-04-25T00:27:44;98599.81;;;7.24
35960;BMP280;22043;50.970;7.192;2023-04-25T00:30:12;98599.84;;;7.21
35960;BMP280;22043;50.970;7.192;2023-04-25T00:32:38;98608.38;;;7.19
35960;BMP280;22043;50.970;7.192;2023-04-25T00:35:04;98601.41;;;7.18
35960;BMP280;22043;50.970;7.192;2023-04-25T00:37:30;98603.78;;;7.13
35960;BMP280;22043;50.970;7.192;2023-04-25T00:39:58;98598.38;;;7.09
35960;BMP280;22043;50.970;7.192;2023-04-25T00:42:24;98589.50;;;7.05
35960;BMP280;22043;50.970;7.192;2023-04-25T00:44:52;98604.59;;;7.06
35960;BMP280;22043;50.970;7.192;2023-04-25T00:47:18;98587.97;;;7.04
35960;BMP280;22043;50.970;7.192;2023-04-25T00:49:45;98606.53;;;7.09
35960;BMP280;22043;50.970;7.192;2023-04-25T00:52:11;98598.81;;;7.04
35960;BMP280;22043;50.970;7.192;2023-04-25T00:54:38;98596.56;;;6.95
35960;BMP280;22043;50.970;7.192;2023-04-25T00:57:04;98606.53;;;7.02
35960;BMP280;22043;50.970;7.192;2023-04-25T00:59:30;98589.56;;;6.94
35960;BMP280;22043;50.970;7.192;2023-04-25T01:01:56;98598.88;;;6.93
35960;BMP280;22043;50.970;7.192;2023-04-25T01:04:24;98601.97;;;6.99
35960;BMP280;22043;50.970;7.192;2023-04-25T01:06:49;98598.47;;;6.98
35960;BMP280;22043;50.970;7.192;2023-04-25T01:09:15;98610.88;;;6.96
35960;BMP280;22043;50.970;7.192;2023-04-25T01:11:41;98603.91;;;6.91
35960;BMP280;22043;50.970;7.192;2023-04-25T01:14:06;98603.56;;;6.86
35960;BMP280;22043;50.970;7.192;2023-04-25T01:16:32;98600.03;;;6.92
35960;BMP280;22043;50.970;7.192;2023-04-25T01:18:58;98608.13;;;6.99
35960;BMP280;22043;50.970;7.192;2023-04-25T01:21:24;98606.53;;;7.02
35960;BMP280;22043;50.970;7.192;2023-04-25T01:23:53;98601.09;;;7.09
35960;BMP280;22043;50.970;7.192;2023-04-25T01:26:19;98604.13;;;7.15
35960;BMP280;22043;50.970;7.192;2023-04-25T01:28:46;98600.19;;;7.26
35960;BMP280;22043;50.970;7.192;2023-04-25T01:31:12;98600.88;;;7.38
35960;BMP280;22043;50.970;7.192;2023-04-25T01:33:38;98607.41;;;7.40
35960;BMP280;22043;50.970;7.192;2023-04-25T01:36:04;98619.38;;;7.50
35960;BMP280;22043;50.970;7.192;2023-04-25T01:38:29;98610.47;;;7.49
35960;BMP280;22043;50.970;7.192;2023-04-25T01:40:55;98607.75;;;7.49
35960;BMP280;22043;50.970;7.192;2023-04-25T01:43:21;98606.56;;;7.50
35960;BMP280;22043;50.970;7.192;2023-04-25T01:45:47;98612.03;;;7.47
35960;BMP280;22043;50.970;7.192;2023-04-25T01:48:13;98614.31;;;7.48
35960;BMP280;22043;50.970;7.192;2023-04-25T01:50:40;98612.03;;;7.47
35960;BMP280;22043;50.970;7.192;2023-04-25T01:53:06;98622.81;;;7.54
35960;BMP280;22043;50.970;7.192;2023-04-25T01:55:32;98621.25;;;7.53
35960;BMP280;22043;50.970;7.192;2023-04-25T01:58:05;98621.66;;;7.55
35960;BMP280;22043;50.970;7.192;2023-04-25T02:01:10;98625.91;;;7.56
35960;BMP280;22043;50.970;7.192;2023-04-25T02:03:42;98624.38;;;7.51
35960;BMP280;22043;50.970;7.192;2023-04-25T02:06:16;98632.16;;;7.49
35960;BMP280;22043;50.970;7.192;2023-04-25T02:08:44;98626.78;;;7.46
35960;BMP280;22043;50.970;7.192;2023-04-25T02:11:11;98625.59;;;7.47
35960;BMP280;22043;50.970;7.192;2023-04-25T02:13:42;98620.50;;;7.49
35960;BMP280;22043;50.970;7.192;2023-04-25T02:16:31;98624.75;;;7.53
35960;BMP280;22043;50.970;7.192;2023-04-25T02:18:56;98626.31;;;7.51
35960;BMP280;22043;50.970;7.192;2023-04-25T02:21:21;98617.06;;;7.45
35960;BMP280;22043;50.970;7.192;2023-04-25T02:23:47;98621.34;;;7.46
35960;BMP280;22043;50.970;7.192;2023-04-25T02:26:14;98630.69;;;7.41
35960;BMP280;22043;50.970;7.192;2023-04-25T02:28:40;98634.94;;;7.39
35960;BMP280;22043;50.970;7.192;2023-04-25T02:31:06;98623.78;;;7.29
35960;BMP280;22043;50.970;7.192;2023-04-25T02:33:31;98621.09;;;7.26
35960;BMP280;22043;50.970;7.192;2023-04-25T02:35:56;98624.63;;;7.19
35960;BMP280;22043;50.970;7.192;2023-04-25T02:38:22;98625.44;;;7.16
35960;BMP280;22043;50.970;7.192;2023-04-25T02:40:47;98620.03;;;7.13
35960;BMP280;22043;50.970;7.192;2023-04-25T02:43:13;98619.66;;;7.07
35960;BMP280;22043;50.970;7.192;2023-04-25T02:45:38;98630.91;;;7.09
35960;BMP280;22043;50.970;7.192;2023-04-25T02:48:04;98633.94;;;7.15
35960;BMP280;22043;50.970;7.192;2023-04-25T02:50:31;98626.22;;;7.13
35960;BMP280;22043;50.970;7.192;2023-04-25T02:52:56;98623.84;;;7.19
35960;BMP280;22043;50.970;7.192;2023-04-25T02:55:27;98627.31;;;7.23
35960;BMP280;22043;50.970;7.192;2023-04-25T02:57:52;98636.97;;;7.24
35960;BMP280;22043;50.970;7.192;2023-04-25T03:00:32;98619.13;;;7.34
35960;BMP280;22043;50.970;7.192;2023-04-25T03:02:57;98624.19;;;7.24
35960;BMP280;22043;50.970;7.192;2023-04-25T03:05:22;98624.97;;;7.28
35960;BMP280;22043;50.970;7.192;2023-04-25T03:07:48;98623.31;;;7.38
35960;BMP280;22043;50.970;7.192;2023-04-25T03:10:15;98623.31;;;7.38
35960;BMP280;22043;50.970;7.192;2023-04-25T03:12:40;98620.22;;;7.40
35960;BMP280;22043;50.970;7.192;2023-04-25T03:15:06;98624.06;;;7.46
35960;BMP280;22043;50.970;7.192;2023-04-25T03:17:32;98621.72;;;7.44
35960;BMP280;22043;50.970;7.192;2023-04-25T03:19:58;98620.50;;;7.49
35960;BMP280;22043;50.970;7.192;2023-04-25T03:22:23;98622.91;;;7.43
35960;BMP280;22043;50.970;7.192;2023-04-25T03:24:50;98624.06;;;7.42
35960;BMP280;22043;50.970;7.192;2023-04-25T03:27:15;98621.75;;;7.41
35960;BMP280;22043;50.970;7.192;2023-04-25T03:29:41;98624.84;;;7.43
35960;BMP280;22043;50.970;7.192;2023-04-25T03:32:07;98636.47;;;7.43
35960;BMP280;22043;50.970;7.192;2023-04-25T03:34:33;98625.22;;;7.45
35960;BMP280;22043;50.970;7.192;2023-04-25T03:36:58;98630.59;;;7.48
35960;BMP280;22043;50.970;7.192;2023-04-25T03:39:24;98632.16;;;7.49
35960;BMP280;22043;50.970;7.192;2023-04-25T03:41:51;98633.69;;;7.50
35960;BMP280;22043;50.970;7.192;2023-04-25T03:44:18;98623.22;;;7.49
35960;BMP280;22043;50.970;7.192;2023-04-25T03:46:44;98640.25;;;7.53
35960;BMP280;22043;50.970;7.192;2023-04-25T03:49:09;98636.78;;;7.49
35960;BMP280;22043;50.970;7.192;2023-04-25T03:51:55;98627.50;;;7.50
35960;BMP280;22043;50.970;7.192;2023-04-25T03:54:21;98626.78;;;7.46
35960;BMP280;22043;50.970;7.192;2023-04-25T03:57:02;98617.91;;;7.38
35960;BMP280;22043;50.970;7.192;2023-04-25T03:59:30;98629.09;;;7.40
35960;BMP280;22043;50.970;7.192;2023-04-25T04:01:56;98623.69;;;7.40
35960;BMP280;22043;50.970;7.192;2023-04-25T04:04:21;98631.50;;;7.35
35960;BMP280;22043;50.970;7.192;2023-04-25T04:06:47;98629.19;;;7.33
35960;BMP280;22043;50.970;7.192;2023-04-25T04:09:20;98628.03;;;7.34
35960;BMP280;22043;50.970;7.192;2023-04-25T04:11:46;98639.94;;;7.44
35960;BMP280;22043;50.970;7.192;2023-04-25T04:14:12;98631.03;;;7.43
35960;BMP280;22043;50.970;7.192;2023-04-25T04:16:42;98640.66;;;7.51
35960;BMP280;22043;50.970;7.192;2023-04-25T04:19:08;98644.53;;;7.50
35960;BMP280;22043;50.970;7.192;2023-04-25T04:21:34;98644.50;;;7.54
35960;BMP280;22043;50.970;7.192;2023-04-25T04:24:01;98648.75;;;7.58
35960;BMP280;22043;50.970;7.192;2023-04-25T04:26:32;98652.19;;;7.59
35960;BMP280;22043;50.970;7.192;2023-04-25T04:29:08;98647.88;;;7.69
35960;BMP280;22043;50.970;7.192;2023-04-25T04:31:56;98660.31;;;7.66
35960;BMP280;22043;50.970;7.192;2023-04-25T04:34:22;98661.06;;;7.67
35960;BMP280;22043;50.970;7.192;2023-04-25T04:36:49;98663.31;;;7.72
35960;BMP280;22043;50.970;7.192;2023-04-25T04:39:15;98661.38;;;7.72
35960;BMP280;22043;50.970;7.192;2023-04-25T04:41:59;98663.66;;;7.77
35960;BMP280;22043;50.970;7.192;2023-04-25T04:44:38;98666.38;;;7.77
35960;BMP280;22043;50.970;7.192;2023-04-25T04:47:11;98672.56;;;7.81
35960;BMP280;22043;50.970;7.192;2023-04-25T04:49:53;98674.03;;;7.90
35960;BMP280;22043;50.970;7.192;2023-04-25T04:52:28;98671.25;;;7.93
35960;BMP280;22043;50.970;7.192;2023-04-25T04:55:14;98679.38;;;7.97
35960;BMP280;22043;50.970;7.192;2023-04-25T04:58:03;98684.03;;;7.96
35960;BMP280;22043;50.970;7.192;2023-04-25T05:00:37;98680.91;;;7.98
35960;BMP280;22043;50.970;7.192;2023-04-25T05:03:21;98689.81;;;8.02
35960;BMP280;22043;50.970;7.192;2023-04-25T05:06:02;98701.84;;;8.01
35960;BMP280;22043;50.970;7.192;2023-04-25T05:08:40;98692.53;;;7.98
35960;BMP280;22043;50.970;7.192;2023-04-25T05:11:28;98697.94;;;8.02
35960;BMP280;22043;50.970;7.192;2023-04-25T05:14:20;98701.78;;;8.04
35960;BMP280;22043;50.970;7.192;2023-04-25T05:17:07;98699.50;;;7.99
35960;BMP280;22043;50.970;7.192;2023-04-25T05:19:59;98708.41;;;8.03
35960;BMP280;22043;50.970;7.192;2023-04-25T05:22:50;98709.88;;;8.08
35960;BMP280;22043;50.970;7.192;2023-04-25T05:25:39;98718.44;;;8.06
35960;BMP280;22043;50.970;7.192;2023-04-25T05:28:12;98715.38;;;8.04
35960;BMP280;22043;50.970;7.192;2023-04-25T05:30:45;98720.44;;;8.02
35960;BMP280;22043;50.970;7.192;2023-04-25T05:33:15;98711.84;;;8.04
35960;BMP280;22043;50.970;7.192;2023-04-25T05:35:42;98717.66;;;8.06
35960;BMP280;22043;50.970;7.192;2023-04-25T05:38:09;98733.53;;;8.07
35960;BMP280;22043;50.970;7.192;2023-04-25T05:40:53;98726.16;;;8.08
35960;BMP280;22043;50.970;7.192;2023-04-25T05:43:45;98734.69;;;8.10
35960;BMP280;22043;50.970;7.192;2023-04-25T05:46:44;98734.31;;;8.08
35960;BMP280;22043;50.970;7.192;2023-04-25T05:49:12;98732.81;;;8.03
35960;BMP280;22043;50.970;7.192;2023-04-25T05:51:57;98743.63;;;8.07
35960;BMP280;22043;50.970;7.192;2023-04-25T05:54:35;98744.66;;;8.20
35960;BMP280;22043;50.970;7.192;2023-04-25T05:57:00;98745.44;;;8.21
35960;BMP280;22043;50.970;7.192;2023-04-25T05:59:27;98745.41;;;8.24
35960;BMP280;22043;50.970;7.192;2023-04-25T06:01:53;98739.66;;;8.15
35960;BMP280;22043;50.970;7.192;2023-04-25T06:04:20;98750.09;;;8.20
35960;BMP280;22043;50.970;7.192;2023-04-25T06:06:45;98755.41;;;8.34
35960;BMP280;22043;50.970;7.192;2023-04-25T06:09:11;98757.41;;;8.27
35960;BMP280;22043;50.970;7.192;2023-04-25T06:11:36;98755.16;;;8.22
35960;BMP280;22043;50.970;7.192;2023-04-25T06:14:02;98759.69;;;8.32
35960;BMP280;22043;50.970;7.192;2023-04-25T06:16:29;98764.25;;;8.42
35960;BMP280;22043;50.970;7.192;2023-04-25T06:18:54;98769.22;;;8.47
35960;BMP280;22043;50.970;7.192;2023-04-25T06:21:19;98778.44;;;8.57
35960;BMP280;22043;50.970;7.192;2023-04-25T06:23:49;98776.16;;;8.55
35960;BMP280;22043;50.970;7.192;2023-04-25T06:26:19;98778.28;;;8.71
35960;BMP280;22043;50.970;7.192;2023-04-25T06:28:46;98798.03;;;8.75
35960;BMP280;22043;50.970;7.192;2023-04-25T06:31:11;98778.34;;;8.67
35960;BMP280;22043;50.970;7.192;2023-04-25T06:33:38;98771.28;;;8.74
35960;BMP280;22043;50.970;7.192;2023-04-25T06:36:03;98763.13;;;8.74
35960;BMP280;22043;50.970;7.192;2023-04-25T06:38:30;98769.38;;;8.67
35960;BMP280;22043;50.970;7.192;2023-04-25T06:40:57;98785.66;;;8.71
35960;BMP280;22043;50.970;7.192;2023-04-25T06:43:22;98777.25;;;8.58
35960;BMP280;22043;50.970;7.192;2023-04-25T06:46:02;98773.13;;;8.46
35960;BMP280;22043;50.970;7.192;2023-04-25T06:48:30;98767.06;;;8.31
35960;BMP280;22043;50.970;7.192;2023-04-25T06:50:57;98766.78;;;8.19
35960;BMP280;22043;50.970;7.192;2023-04-25T06:53:23;98775.78;;;8.12
35960;BMP280;22043;50.970;7.192;2023-04-25T06:55:54;98780.06;;;8.13
35960;BMP280;22043;50.970;7.192;2023-04-25T06:58:21;98780.66;;;8.31
35960;BMP280;22043;50.970;7.192;2023-04-25T07:00:54;98772.78;;;8.40
35960;BMP280;22043;50.970;7.192;2023-04-25T07:03:22;98778.91;;;8.52
35960;BMP280;22043;50.970;7.192;2023-04-25T07:05:49;98778.16;;;8.48
35960;BMP280;22043;50.970;7.192;2023-04-25T07:08:16;98778.09;;;8.55
35960;BMP280;22043;50.970;7.192;2023-04-25T07:10:41;98790.44;;;8.63
35960;BMP280;22043;50.970;7.192;2023-04-25T07:13:07;98789.47;;;8.77
35960;BMP280;22043;50.970;7.192;2023-04-25T07:15:33;98787.78;;;8.90
35960;BMP280;22043;50.970;7.192;2023-04-25T07:18:00;98798.16;;;8.99
35960;BMP280;22043;50.970;7.192;2023-04-25T07:20:25;98794.84;;;8.84
35960;BMP280;22043;50.970;7.192;2023-04-25T07:22:52;98799.88;;;8.85
35960;BMP280;22043;50.970;7.192;2023-04-25T07:25:18;98805.25;;;8.92
35960;BMP280;22043;50.970;7.192;2023-04-25T07:27:44;98795.91;;;8.93
35960;BMP280;22043;50.970;7.192;2023-04-25T07:30:13;98813.78;;;8.91
35960;BMP280;22043;50.970;7.192;2023-04-25T07:32:39;98804.34;;;9.03
35960;BMP280;22043;50.970;7.192;2023-04-25T07:35:05;98807.97;;;8.92
35960;BMP280;22043;50.970;7.192;2023-04-25T07:37:32;98808.13;;;9.09
35960;BMP280;22043;50.970;7.192;2023-04-25T07:40:08;98812.06;;;9.04
35960;BMP280;22043;50.970;7.192;2023-04-25T07:42:35;98804.59;;;9.12
35960;BMP280;22043;50.970;7.192;2023-04-25T07:45:02;98809.19;;;9.18
35960;BMP280;22043;50.970;7.192;2023-04-25T07:47:28;98815.56;;;9.35
35960;BMP280;22043;50.970;7.192;2023-04-25T07:49:54;98814.72;;;9.11
35960;BMP280;22043;50.970;7.192;2023-04-25T07:52:20;98823.50;;;9.22
35960;BMP280;22043;50.970;7.192;2023-04-25T07:54:51;98823.53;;;9.19
35960;BMP280;22043;50.970;7.192;2023-04-25T07:57:22;98828.09;;;8.95
35960;BMP280;22043;50.970;7.192;2023-04-25T07:59:50;98835.16;;;8.89
35960;BMP280;22043;50.970;7.192;2023-04-25T08:02:15;98832.31;;;9.00
35960;BMP280;22043;50.970;7.192;2023-04-25T08:04:40;98831.88;;;9.05
35960;BMP280;22043;50.970;7.192;2023-04-25T08:07:08;98836.94;;;9.03
35960;BMP280;22043;50.970;7.192;2023-04-25T08:09:48;98837.22;;;9.12
35960;BMP280;22043;50.970;7.192;2023-04-25T08:12:21;98838.75;;;9.13
35960;BMP280;22043;50.970;7.192;2023-04-25T08:14:47;98843.84;;;9.11
35960;BMP280;22043;50.970;7.192;2023-04-25T08:17:12;98858.91;;;9.15
35960;BMP280;22043;50.970;7.192;2023-04-25T08:19:40;98846.75;;;9.27
35960;BMP280;22043;50.970;7.192;2023-04-25T08:22:08;98852.66;;;9.22
35960;BMP280;22043;50.970;7.192;2023-04-25T08:24:44;98863.81;;;9.31
35960;BMP280;22043;50.970;7.192;2023-04-25T08:27:13;98855.53;;;9.38
35960;BMP280;22043;50.970;7.192;2023-04-25T08:29:40;98866.59;;;9.55
35960;BMP280;22043;50.970;7.192;2023-04-25T08:32:05;98867.13;;;9.73
35960;BMP280;22043;50.970;7.192;2023-04-25T08:34:33;98863.16;;;9.50
35960;BMP280;22043;50.970;7.192;2023-04-25T08:37:02;98877.84;;;9.57
35960;BMP280;22043;50.970;7.192;2023-04-25T08:39:49;98880.91;;;9.59
35960;BMP280;22043;50.970;7.192;2023-04-25T08:42:21;98884.91;;;9.50
35960;BMP280;22043;50.970;7.192;2023-04-25T08:44:48;98896.25;;;9.45
35960;BMP280;22043;50.970;7.192;2023-04-25T08:47:13;98901.88;;;9.31
35960;BMP280;22043;50.970;7.192;2023-04-25T08:49:47;98897.59;;;9.30
35960;BMP280;22043;50.970;7.192;2023-04-25T08:52:14;98899.69;;;9.19
35960;BMP280;22043;50.970;7.192;2023-04-25T08:54:43;98913.78;;;9.07
35960;BMP280;22043;50.970;7.192;2023-04-25T08:57:12;98904.50;;;9.04
35960;BMP280;22043;50.970;7.192;2023-04-25T08:59:39;98922.38;;;9.05
35960;BMP280;22043;50.970;7.192;2023-04-25T09:02:05;98922.22;;;9.16
35960;BMP280;22043;50.970;7.192;2023-04-25T09:04:31;98925.66;;;9.23
35960;BMP280;22043;50.970;7.192;2023-04-25T09:06:57;98925.13;;;9.36
35960;BMP280;22043;50.970;7.192;2023-04-25T09:09:24;98936.25;;;9.48
35960;BMP280;22043;50.970;7.192;2023-04-25T09:11:49;98932.16;;;9.64
35960;BMP280;22043;50.970;7.192;2023-04-25T09:14:17;98931.94;;;9.82
35960;BMP280;22043;50.970;7.192;2023-04-25T09:16:57;98940.59;;;9.73
35960;BMP280;22043;50.970;7.192;2023-04-25T09:19:37;98940.72;;;9.62
35960;BMP280;22043;50.970;7.192;2023-04-25T09:22:08;98951.16;;;9.67
35960;BMP280;22043;50.970;7.192;2023-04-25T09:24:42;98951.94;;;9.68
35960;BMP280;22043;50.970;7.192;2023-04-25T09:27:11;98955.31;;;9.79
35960;BMP280;22043;50.970;7.192;2023-04-25T09:29:40;98963.69;;;9.92
35960;BMP280;22043;50.970;7.192;2023-04-25T09:32:18;98962.78;;;10.02
35960;BMP280;22043;50.970;7.192;2023-04-25T09:34:47;98958.34;;;10.12
35960;BMP280;22043;50.970;7.192;2023-04-25T09:37:18;98957.88;;;10.17
35960;BMP280;22043;50.970;7.192;2023-04-25T09:40:05;98966.81;;;10.17
35960;BMP280;22043;50.970;7.192;2023-04-25T09:42:35;98958.34;;;10.12
35960;BMP280;22043;50.970;7.192;2023-04-25T09:45:03;98972.66;;;10.19
35960;BMP280;22043;50.970;7.192;2023-04-25T09:47:37;98963.81;;;10.12
35960;BMP280;22043;50.970;7.192;2023-04-25T09:50:13;98971.56;;;10.13
35960;BMP280;22043;50.970;7.192;2023-04-25T09:52:39;98977.03;;;10.09
35960;BMP280;22043;50.970;7.192;2023-04-25T09:55:16;98973.16;;;10.11
35960;BMP280;22043;50.970;7.192;2023-04-25T09:57:44;98973.44;;;9.89
35960;BMP280;22043;50.970;7.192;2023-04-25T10:00:15;98975.22;;;9.72
35960;BMP280;22043;50.970;7.192;2023-04-25T10:02:42;98973.63;;;9.75
35960;BMP280;22043;50.970;7.192;2023-04-25T10:05:11;98979.22;;;9.95
35960;BMP280;22043;50.970;7.192;2023-04-25T10:07:39;98981.50;;;9.96
35960;BMP280;22043;50.970;7.192;2023-04-25T10:10:12;98987.53;;;10.11
35960;BMP280;22043;50.970;7.192;2023-04-25T10:12:38;98981.50;;;9.96
35960;BMP280;22043;50.970;7.192;2023-04-25T10:15:06;98983.75;;;10.01
35960;BMP280;22043;50.970;7.192;2023-04-25T10:17:33;98990.03;;;9.98
35960;BMP280;22043;50.970;7.192;2023-04-25T10:20:01;98990.97;;;9.88
35960;BMP280;22043;50.970;7.192;2023-04-25T10:22:32;98999.97;;;9.82
35960;BMP280;22043;50.970;7.192;2023-04-25T10:25:00;98999.03;;;9.95
35960;BMP280;22043;50.970;7.192;2023-04-25T10:27:29;98995.03;;;10.03
35960;BMP280;22043;50.970;7.192;2023-04-25T10:30:03;98998.56;;;10.00
35960;BMP280;22043;50.970;7.192;2023-04-25T10:32:32;99000.09;;;10.01
35960;BMP280;22043;50.970;7.192;2023-04-25T10:35:10;98997.00;;;10.03
35960;BMP280;22043;50.970;7.192;2023-04-25T10:37:36;98995.44;;;10.02
35960;BMP280;22043;50.970;7.192;2023-04-25T10:40:08;98997.25;;;10.12
35960;BMP280;22043;50.970;7.192;2023-04-25T10:42:34;98989.88;;;10.09
35960;BMP280;22043;50.970;7.192;2023-04-25T10:45:01;98996.50;;;10.35
35960;BMP280;22043;50.970;7.192;2023-04-25T10:47:35;98995.56;;;10.72
35960;BMP280;22043;50.970;7.192;2023-04-25T10:50:06;98996.50;;;10.85
35960;BMP280;22043;50.970;7.192;2023-04-25T10:52:33;99002.97;;;10.72
35960;BMP280;22043;50.970;7.192;2023-04-25T10:54:58;99009.41;;;10.58
35960;BMP280;22043;50.970;7.192;2023-04-25T10:57:40;99005.88;;;10.34
35960;BMP280;22043;50.970;7.192;2023-04-25T11:00:07;99021.09;;;10.04
35960;BMP280;22043;50.970;7.192;2023-04-25T11:02:37;99013.56;;;9.85
35960;BMP280;22043;50.970;7.192;2023-04-25T11:05:03;99015.22;;;9.75
35960;BMP280;22043;50.970;7.192;2023-04-25T11:07:34;99020.56;;;9.52
35960;BMP280;22043;50.970;7.192;2023-04-25T11:10:03;99018.66;;;9.45
35960;BMP280;22043;50.970;7.192;2023-04-25T11:12:30;99020.28;;;9.39
35960;BMP280;22043;50.970;7.192;2023-04-25T11:15:03;99012.44;;;9.45
35960;BMP280;22043;50.970;7.192;2023-04-25T11:17:28;99010.00;;;9.54
35960;BMP280;22043;50.970;7.192;2023-04-25T11:19:54;99011.16;;;9.57
35960;BMP280;22043;50.970;7.192;2023-04-25T11:22:22;99015.22;;;9.72
35960;BMP280;22043;50.970;7.192;2023-04-25T11:24:47;99005.41;;;9.82
35960;BMP280;22043;50.970;7.192;2023-04-25T11:27:13;99011.88;;;9.95
35960;BMP280;22043;50.970;7.192;2023-04-25T11:29:38;99009.88;;;9.99
35960;BMP280;22043;50.970;7.192;2023-04-25T11:32:04;99014.63;;;10.22
35960;BMP280;22043;50.970;7.192;2023-04-25T11:34:30;99016.22;;;10.46
35960;BMP280;22043;50.970;7.192;2023-04-25T11:36:56;99007.81;;;10.60
35960;BMP280;22043;50.970;7.192;2023-04-25T11:39:24;99011.50;;;10.74
35960;BMP280;22043;50.970;7.192;2023-04-25T11:41:49;99010.81;;;10.70
35960;BMP280;22043;50.970;7.192;2023-04-25T11:44:16;99014.16;;;10.77
35960;BMP280;22043;50.970;7.192;2023-04-25T11:46:43;99022.19;;;10.88
35960;BMP280;22043;50.970;7.192;2023-04-25T11:49:08;99016.50;;;10.79
35960;BMP280;22043;50.970;7.192;2023-04-25T11:51:44;99019.78;;;10.67
35960;BMP280;22043;50.970;7.192;2023-04-25T11:54:10;99016.41;;;10.59
35960;BMP280;22043;50.970;7.192;2023-04-25T11:56:37;99020.94;;;10.42
35960;BMP280;22043;50.970;7.192;2023-04-25T11:59:04;99017.50;;;10.38
35960;BMP280;22043;50.970;7.192;2023-04-25T12:01:34;99024.69;;;10.52
35960;BMP280;22043;50.970;7.192;2023-04-25T12:04:17;99013.78;;;10.52
35960;BMP280;22043;50.970;7.192;2023-04-25T12:06:44;99016.47;;;10.55
35960;BMP280;22043;50.970;7.192;2023-04-25T12:09:12;99015.03;;;10.47
35960;BMP280;22043;50.970;7.192;2023-04-25T12:11:42;99013.50;;;10.46
35960;BMP280;22043;50.970;7.192;2023-04-25T12:14:09;99016.63;;;10.45
35960;BMP280;22043;50.970;7.192;2023-04-25T12:16:45;99016.75;;;10.38
35960;BMP280;22043;50.970;7.192;2023-04-25T12:19:15;99026.53;;;10.31
35960;BMP280;22043;50.970;7.192;2023-04-25T12:21:41;99029.59;;;10.37
35960;BMP280;22043;50.970;7.192;2023-04-25T12:24:26;99021.31;;;10.44
35960;BMP280;22043;50.970;7.192;2023-04-25T12:26:53;99014.75;;;10.65
35960;BMP280;22043;50.970;7.192;2023-04-25T12:29:22;99010.19;;;10.82
35960;BMP280;22043;50.970;7.192;2023-04-25T12:31:48;99027.25;;;11.09
35960;BMP280;22043;50.970;7.192;2023-04-25T12:34:14;99020.53;;;11.37
35960;BMP280;22043;50.970;7.192;2023-04-25T12:36:40;99019.75;;;11.57
35960;BMP280;22043;50.970;7.192;2023-04-25T12:39:06;99036.44;;;11.62
35960;BMP280;22043;50.970;7.192;2023-04-25T12:41:32;99035.41;;;11.52
35960;BMP280;22043;50.970;7.192;2023-04-25T12:43:57;99035.28;;;11.40
35960;BMP280;22043;50.970;7.192;2023-04-25T12:46:23;99019.88;;;11.30
35960;BMP280;22043;50.970;7.192;2023-04-25T12:48:48;99034.78;;;11.25
35960;BMP280;22043;50.970;7.192;2023-04-25T12:51:14;99032.56;;;11.20
35960;BMP280;22043;50.970;7.192;2023-04-25T12:53:40;99035.03;;;11.11
35960;BMP280;22043;50.970;7.192;2023-04-25T12:56:09;99038.59;;;11.08
35960;BMP280;22043;50.970;7.192;2023-04-25T12:58:35;99036.63;;;11.08
35960;BMP280;22043;50.970;7.192;2023-04-25T13:01:01;99033.50;;;11.10
35960;BMP280;22043;50.970;7.192;2023-04-25T13:03:27;99028.88;;;11.07
35960;BMP280;22043;50.970;7.192;2023-04-25T13:05:52;99044.31;;;11.13
35960;BMP280;22043;50.970;7.192;2023-04-25T13:08:18;99048.69;;;11.31
35960;BMP280;22043;50.970;7.192;2023-04-25T13:10:44;99060.34;;;11.35
35960;BMP280;22043;50.970;7.192;2023-04-25T13:13:09;99057.25;;;11.33
35960;BMP280;22043;50.970;7.192;2023-04-25T13:15:35;99068.53;;;11.35
35960;BMP280;22043;50.970;7.192;2023-04-25T13:18:03;99069.72;;;11.34
35960;BMP280;22043;50.970;7.192;2023-04-25T13:20:29;99081.84;;;11.29
35960;BMP280;22043;50.970;7.192;2023-04-25T13:22:54;99075.75;;;11.21
35960;BMP280;22043;50.970;7.192;2023-04-25T13:25:20;99072.50;;;11.07
35960;BMP280;22043;50.970;7.192;2023-04-25T13:27:47;99077.69;;;10.98
35960;BMP280;22043;50.970;7.192;2023-04-25T13:30:12;99080.88;;;10.96
35960;BMP280;22043;50.970;7.192;2023-04-25T13:32:38;99086.44;;;10.89
35960;BMP280;22043;50.970;7.192;2023-04-25T13:35:05;99089.25;;;10.82
35960;BMP280;22043;50.970;7.192;2023-04-25T13:37:31;99092.63;;;10.66
35960;BMP280;22043;50.970;7.192;2023-04-25T13:40:06;99093.72;;;10.69
35960;BMP280;22043;50.970;7.192;2023-04-25T13:42:34;99097.59;;;10.44
35960;BMP280;22043;50.970;7.192;2023-04-25T13:44:59;99096.88;;;10.40
35960;BMP280;22043;50.970;7.192;2023-04-25T13:47:26;99115.66;;;10.31
35960;BMP280;22043;50.970;7.192;2023-04-25T13:49:52;99105.69;;;10.21
35960;BMP280;22043;50.970;7.192;2023-04-25T13:52:18;99103.22;;;9.99
35960;BMP280;22043;50.970;7.192;2023-04-25T13:54:43;99099.41;;;9.93
35960;BMP280;22043;50.970;7.192;2023-04-25T13:57:09;99098.81;;;9.75
35960;BMP280;22043;50.970;7.192;2023-04-25T13:59:36;99100.06;;;9.67
35960;BMP280;22043;50.970;7.192;2023-04-25T14:02:01;99089.28;;;9.60
35960;BMP280;22043;50.970;7.192;2023-04-25T14:04:27;99096.16;;;9.68
35960;BMP280;22043;50.970;7.192;2023-04-25T14:06:53;99095.38;;;9.67
35960;BMP280;22043;50.970;7.192;2023-04-25T14:09:19;99090.53;;;9.86
35960;BMP280;22043;50.970;7.192;2023-04-25T14:11:46;99091.25;;;9.90
35960;BMP280;22043;50.970;7.192;2023-04-25T14:14:11;99085.69;;;10.00
35960;BMP280;22043;50.970;7.192;2023-04-25T14:16:38;99086.34;;;10.12
35960;BMP280;22043;50.970;7.192;2023-04-25T14:19:03;99090.66;;;10.40
35960;BMP280;22043;50.970;7.192;2023-04-25T14:21:29;99079.91;;;10.56
35960;BMP280;22043;50.970;7.192;2023-04-25T14:23:56;99072.56;;;10.53
35960;BMP280;22043;50.970;7.192;2023-04-25T14:26:22;99081.63;;;10.46
35960;BMP280;22043;50.970;7.192;2023-04-25T14:28:47;99083.16;;;10.47